Terminal Aerodrome Forecast
Issued by NWS

Home | Current Version | Previous Version | Text Only | Print | Product List | Glossary On
Versions: 1 2 3 4 5 6 7 8 9 10 11 12 13
000
FTUS45 KTFX 240500
TAFCTB
TAF
KCTB 240520Z 2406/2506 32007KT P6SM SCT180
     FM241000 27020G35KT P6SM SCT150
     FM241800 25030G45KT P6SM SKC
     FM250200 24025KT P6SM SCT180=

USA.gov is the U.S. government's official web portal to all federal, state and local government web resources and services.